Extreme weather reports worldwide

High winds

Station
 
Location
 
Name
 
Wind
Knots
Gust
Knots
Vis
SM
Temp/Dew
C
Baro
inHg
METAR
 
CXMM 32 11/11 CXMM 172100Z AUTO 00032KT 12/11 RMK AO1 6PAST HR 2021 SLP103 P0002 T01160112 50016
CWOB 28 -1/-1 29.63 CWOB 172100Z AUTO 20028KT ////SM FEW002 M01/M01 A2963
YRB CYRB Resolute Bay, CA Resolute Bay Airport 28 15 1/0 29.60 CYRB 172100Z 12028KT 15SM OVC007 01/M00 A2960 RMK ST8 SLP033
VXE GVSV São Pedro, CV São Pedro Airport 27 6.21 24/18 29.97 GVSV 172100Z 06027KT 9999 FEW017 24/18 Q1015 NOSIG
KMWN 26 36 99 7/1 KMWN 172051Z 30026G36KT 130SM SCT010 SCT180 SCT220 07/01 RMK

Station
 
Location
 
Name
 
Wind
Knots
Gust
Knots
Vis
SM
Temp/Dew
C
Baro
inHg
METAR
 
TBS UGTB Tbilisi, GE Tbilisi International Airport 26 37 6.21 20/12 29.91 UGTB 172100Z 32026G37KT CAVOK 20/12 Q1013 NOSIG
CWLE 25 33 23/-2 CWLE 172100Z AUTO 30025G33KT 24/M03 RMK AO1 PK WND 29034/2034 SLP119 T02391028 56010
TOE DTTZ Tozeur, TN Tozeur Nefta International Airport 25 35 3.11 30/13 29.88 DTTZ 172100Z 09025G35KT 5000 FEW040 30/13 Q1012
PAUT Akutan, US Akun Airport 25 29 7 7/-7 29.87 PAUT 172115Z AUTO 08025G29KT 7SM OVC002 08/M08 A2987 RMK AO2 T00781076 PWINO
YTL CYTL Big Trout Lake, CA Big Trout Lake Airport 25 33 9 17/10 29.40 CYTL 172120Z AUTO 29025G33KT 9SM -RA FEW045 BKN077 BKN092 17/10 A2940 RMK PRESRR SLP963 DENSITY ALT 1800FT
CWIW 24 35 21/1 CWIW 172100Z AUTO 29024G35KT 22/02 RMK AO1 PK WND 30039/2046 SLP090 T02150015 58010
CWRJ 24 36 22/0 CWRJ 172100Z AUTO 30024G36KT 22/01 RMK AO1 PK WND 30038/2001 SLP110 T02240005 56007
CXRB 24 31 1/0 CXRB 172100Z AUTO 12024G31KT 01/M00 RMK AO1 PK WND 12031/2055 SLP031 T00141003 56004
YBR CYBR Brandon, CA Brandon Municipal Airport 24 33 15 26/5 29.75 CYBR 172100Z 28024G33KT 15SM FEW070 26/05 A2975 RMK CU1 SLP080 DENSITY ALT 3100FT
YKY CYKY Kindersley, CA Kindersley Airport 24 34 15 22/2 29.88 CYKY 172100Z 30024G34KT 15SM FEW076 22/02 A2988 RMK CU1 SLP121 DENSITY ALT 3700FT
YXE CYXE Saskatoon, CA Saskatoon John G. Diefenbaker International Airport 24 15 20/6 29.80 CYXE 172100Z 29024KT 15SM BKN070 20/06 A2980 RMK CU6 SLP101 DENSITY ALT 2800FT
IWO RJAW JP Iwo Jima Airport 24 37 4.97 26/24 29.65 RJAW 172100Z 22024G37KT 8000 -SHRA FEW006 BKN010 BKN015 26/24 Q1004 RMK 1ST006 5CU010 7CU015 A2965
CWGY 23 30 22/1 CWGY 172100Z AUTO 26023G30KT 22/01 RMK AO1 PK WND 27030/2058 SLP128 T02220012 58007
CXBA 23 19/6 CXBA 172100Z AUTO 31023KT 20/06 RMK AO1 PK WND 28035/2041 T01980062
CYBW Calgary, CA Calgary / Springbank Airport 23 30 9 22/-1 29.95 CYBW 172100Z AUTO 27023G30KT 9SM CLR 22/M01 A2995 RMK SLP139 DENSITY ALT 5700FT
YQV CYQV Yorkton, CA Yorkton Municipal Airport 23 36 9 22/3 29.76 CYQV 172100Z AUTO 28023G36KT 9SM SCT086 22/03 A2976 RMK SLP082 DENSITY ALT 3100FT
WPC CZPC Pincher Creek, CA Pincher Creek Airport 23 30 9 22/2 30.00 CZPC 172100Z AUTO 25023G30KT 9SM CLR 22/02 A3000 RMK SLP152 DENSITY ALT 5500FT
KIN MKJP Kingston, JM Norman Manley International Airport 23 6.21 30/24 29.88 MKJP 172100Z 14023KT 9999 FEW024 30/24 Q1012
KBTA Blair, US Blair Municipal Airport 23 29 10 37/16 29.76 KBTA 172115Z AUTO 20023G29KT 10SM CLR 38/17 A2976 RMK AO2 T03780168
KCMR Williams, US H.A. Clark Memorial Field 23 30 10 29/2 30.22 KCMR 172115Z AUTO 09023G30KT 10SM FEW042 FEW065 SCT090 29/02 A3022 RMK AO2
KEHY 23 29 10 / 30.19 KEHY 172115Z AUTO 26023G29KT 10SM CLR A3019 RMK AO2 PWINO
CDC KCDC Cedar City, US Cedar City Regional Airport 22 10 35/-4 30.10 KCDC 172053Z AUTO 22022KT 10SM CLR 35/M04 A3010 RMK AO2 PK WND 21027/2029 WSHFT 2023 SLP097 T03501044 56014
TSM KSKX Taos, US Taos Regional Airport 22 27 10 31/4 30.23 KSKX 172056Z AUTO 17022G27KT 10SM BKN120 31/04 A3023 RMK AO2 PK WND 17027/2054 SLP152 T03110044 56023
CPIN 22 28 / CPIN 172100Z AUTO 29022G28KT ////SM OVC003 ///// A////
CWEQ 22 32 20/4 CWEQ 172100Z AUTO 28022G32KT 21/05 RMK AO1 PK WND 27036/2009 SLP054 T02050047 53001
CXBR 22 22/-1 CXBR 172100Z AUTO 27022KT 23/M01 RMK AO1 PK WND 26031/2040 T02251014
YDN CYDN Dauphin, CA Dauphin Barker Airport 22 31 9 26/5 29.67 CYDN 172100Z AUTO 29022G31KT 9SM CLR 26/05 A2967 RMK SLP050 DENSITY ALT 2800FT
YLL CYLL Lloydminster, CA Lloydminster Airport 22 15 12/8 29.84 CYLL 172100Z 29022KT 15SM -RA BKN019 BKN033 OVC075 12/08 A2984 RMK SC5SC1AC2 SLP120 DENSITY ALT 2500FT
YMJ CYMJ Moose Jaw, CA Moose Jaw Air Vice Marshal C. M. McEwen Airport 22 32 15 24/-1 29.86 CYMJ 172100Z 27022G32KT 15SM FEW080 24/M01 A2986 RMK CF1 SLP110
YWG CYWG Winnipeg, CA Winnipeg / James Armstrong Richardson International Airport 22 29 15 29/5 29.67 CYWG 172100Z 27022G29KT 15SM SCT095 29/05 A2967 RMK CU3 SLP049 DENSITY ALT 2900FT
YYQ CYYQ Churchill, CA Churchill Airport 22 30 15 1/1 29.64 CYYQ 172100Z 02022G30KT 15SM BR OVC002 01/01 A2964 RMK SF8 SLP040
CUC SKCC Cúcuta, CO Camilo Daza International Airport 22 6.21 30/20 29.85 SKCC 172100Z 17022KT 9999 -RA SCT020 SCT090 30/20 Q1011 RMK A2985
GYD UBBB Baku, AZ Heydar Aliyev International Airport 22 32 6.21 26/19 29.79 UBBB 172100Z 32022G32KT CAVOK 26/19 Q1009 R88/CLRD// NOSIG
K4S1 22 31 5 16/12 30.05 K4S1 172115Z AUTO 02022G31KT 5SM HZ CLR 16/12 A3005 RMK AO2
FBR KFBR Fort Bridger, US Fort Bridger Airport 22 29 10 33/-8 30.26 KFBR 172115Z AUTO 28022G29KT 10SM CLR 33/M08 A3026 RMK AO2 T03321080
EVW KEVW Evanston, US Evanston-Uinta County Airport-Burns Field 21 27 10 31/-4 30.25 KEVW 172053Z AUTO 28021G27KT 10SM CLR 32/M04 A3025 RMK AO2 PK WND 27027/2046 SLP126 T03171044 56013 $
GCK KGCK Garden City, US Garden City Regional Airport 21 30 10 37/7 29.91 KGCK 172054Z 21021G30KT 10SM CLR 38/08 A2991 RMK AO2 PK WND 22030/2051 SLP084 T03780078 58017
DVL KDVL Devils Lake, US Devils Lake Regional Airport 21 27 10 30/1 29.80 KDVL 172056Z AUTO 28021G27KT 10SM CLR 30/02 A2980 RMK AO2 PK WND 27028/2027 SLP673 T03000017 58015
GBD KGBD Great Bend, US Great Bend Municipal Airport 21 26 10 37/15 29.88 KGBD 172056Z AUTO 21021G26KT 10SM CLR 38/15 A2988 RMK AO2 PK WND 18027/2009 SLP092 T03780150 58014
OTH KOTH North Bend, US Southwest Oregon Regional Airport 21 28 10 16/12 30.16 KOTH 172056Z 36021G28KT 10SM OVC008 17/13 A3016 RMK AO2 PK WND 36029/2032 SLP212 T01670128 56009
XJD OTBH Ar Rayyan, QA Al Udeid Air Base 21 28 1.12 35/13 29.52 OTBH 172056Z 33021G28KT 1800 BLDU CLR 35/14 A2952 RMK PK WND 33028/2057 T03500137 $
CWCT 21 29 17/3 CWCT 172100Z AUTO 31021G29KT 17/04 RMK AO1 PK WND 30031/2034 SLP150 T01740039 53001
CWKM 21 12/5 30.10 CWKM 172100Z AUTO 08021KT ////SM NCD 12/05 A3010
CXAK 21 14/7 CXAK 172100Z AUTO 33021KT 14/08 RMK AO1 PK WND 32032/2014 T01430075
CXBK 21 30 24/-2 CXBK 172100Z AUTO 30021G30KT 24/M02 RMK AO1 PK WND 29030/2050 SLP111 T02421020